createdAt,value
2023-01-22T00:00:09.192Z,101477.94
2023-01-22T00:02:42.722Z,101479.41
2023-01-22T00:05:10.453Z,101481.53
2023-01-22T00:07:37.978Z,101482.22
2023-01-22T00:10:05.391Z,101478.41
2023-01-22T00:12:32.843Z,101478.22
2023-01-22T00:15:00.049Z,101479.66
2023-01-22T00:17:27.609Z,101471.69
2023-01-22T00:19:54.868Z,101475.31
2023-01-22T00:22:22.315Z,101480.84
2023-01-22T00:24:49.534Z,101472.81
2023-01-22T00:27:17.408Z,101469.91
2023-01-22T00:29:44.704Z,101471.41
2023-01-22T00:32:12.188Z,101473.22
2023-01-22T00:34:41.637Z,101465.84
2023-01-22T00:37:08.818Z,101466.69
2023-01-22T00:39:36.138Z,101459.63
2023-01-22T00:42:06.540Z,101456.34
2023-01-22T00:44:33.926Z,101470.56
2023-01-22T00:47:01.151Z,101463.69
2023-01-22T00:49:28.351Z,101463.25
2023-01-22T00:51:55.574Z,101467.84
2023-01-22T00:54:22.965Z,101463.25
2023-01-22T00:56:50.217Z,101458.97
2023-01-22T00:59:17.555Z,101461.34
2023-01-22T01:01:44.904Z,101455.56
2023-01-22T01:04:13.727Z,101465.50
2023-01-22T01:06:40.957Z,101466.22
2023-01-22T01:09:08.214Z,101470.84
2023-01-22T01:11:36.378Z,101470.47
2023-01-22T01:14:04.032Z,101465.28
2023-01-22T01:16:32.126Z,101470.09
2023-01-22T01:19:04.215Z,101473.34
2023-01-22T01:21:31.865Z,101466.66
2023-01-22T01:23:59.665Z,101476.22
2023-01-22T01:26:26.991Z,101475.81
2023-01-22T01:28:55.995Z,101475.66
2023-01-22T01:31:24.412Z,101469.03
2023-01-22T01:33:51.721Z,101469.72
2023-01-22T01:36:35.303Z,101478.72
2023-01-22T01:39:04.326Z,101475.59
2023-01-22T01:41:31.608Z,101481.13
2023-01-22T01:44:19.918Z,101472.91
2023-01-22T01:46:50.097Z,101474.53
2023-01-22T01:49:25.350Z,101473.63
2023-01-22T01:51:54.659Z,101475.06
2023-01-22T01:54:22.375Z,101479.06
2023-01-22T01:56:51.888Z,101473.69
2023-01-22T01:59:20.259Z,101479.22
2023-01-22T02:01:49.929Z,101485.53
2023-01-22T02:04:17.653Z,101484.34
2023-01-22T02:06:45.133Z,101484.22
2023-01-22T02:09:13.464Z,101483.91
2023-01-22T02:11:40.795Z,101479.06
2023-01-22T02:14:13.145Z,101480.53
2023-01-22T02:16:40.604Z,101479.84
2023-01-22T02:19:08.066Z,101484.94
2023-01-22T02:21:37.162Z,101478.84
2023-01-22T02:24:05.891Z,101486.41
2023-01-22T02:26:33.956Z,101481.75
2023-01-22T02:29:01.232Z,101486.09
2023-01-22T02:31:30.766Z,101481.75
2023-01-22T02:33:59.110Z,101486.94
2023-01-22T02:36:29.629Z,101484.09
2023-01-22T02:38:56.979Z,101486.56
2023-01-22T02:41:24.890Z,101489.06
2023-01-22T02:43:52.229Z,101490.44
2023-01-22T02:46:21.705Z,101492.00
2023-01-22T02:48:50.211Z,101491.53
2023-01-22T02:51:17.850Z,101490.97
2023-01-22T02:53:47.591Z,101490.63
2023-01-22T02:56:14.846Z,101499.56
2023-01-22T02:58:42.301Z,101492.84
2023-01-22T03:01:20.982Z,101491.22
2023-01-22T03:04:01.669Z,101496.06
2023-01-22T03:06:29.831Z,101500.03
2023-01-22T03:09:00.637Z,101504.53
2023-01-22T03:11:30.275Z,101499.81
2023-01-22T03:14:24.017Z,101506.97
2023-01-22T03:17:12.130Z,101510.25
2023-01-22T03:19:58.310Z,101506.97
2023-01-22T03:22:26.117Z,101505.03
2023-01-22T03:24:58.873Z,101512.59
2023-01-22T03:27:27.823Z,101520.44
2023-01-22T03:29:57.914Z,101514.28
2023-01-22T03:32:25.813Z,101515.19
2023-01-22T03:34:54.008Z,101509.56
2023-01-22T03:37:23.192Z,101516.50
2023-01-22T03:39:53.782Z,101512.44
2023-01-22T03:42:35.299Z,101521.38
2023-01-22T03:45:02.796Z,101512.06
2023-01-22T03:47:30.574Z,101516.56
2023-01-22T03:50:01.034Z,101513.81
2023-01-22T03:52:28.660Z,101517.78
2023-01-22T03:54:55.885Z,101528.41
2023-01-22T03:57:24.218Z,101522.78
2023-01-22T03:59:51.484Z,101526.88
2023-01-22T04:02:19.393Z,101530.75
2023-01-22T04:05:03.537Z,101525.22
2023-01-22T04:07:31.001Z,101526.84
2023-01-22T04:09:58.395Z,101530.00
2023-01-22T04:12:26.189Z,101528.41
2023-01-22T04:14:53.666Z,101529.31
2023-01-22T04:17:25.641Z,101540.28
2023-01-22T04:20:12.725Z,101531.63
2023-01-22T04:22:47.751Z,101537.81
2023-01-22T04:25:16.086Z,101543.03
2023-01-22T04:27:45.024Z,101540.50
2023-01-22T04:30:14.008Z,101541.03
2023-01-22T04:32:41.326Z,101547.91
2023-01-22T04:35:24.430Z,101537.88
2023-01-22T04:37:57.300Z,101543.59
2023-01-22T04:40:24.697Z,101540.66
2023-01-22T04:42:52.265Z,101541.19
2023-01-22T04:45:19.739Z,101535.19
2023-01-22T04:47:48.652Z,101540.88
2023-01-22T04:50:24.279Z,101542.13
2023-01-22T04:52:52.757Z,101537.94
2023-01-22T04:55:20.725Z,101538.31
2023-01-22T04:57:59.320Z,101543.25
2023-01-22T05:00:27.323Z,101540.94
2023-01-22T05:02:58.940Z,101542.75
2023-01-22T05:05:28.475Z,101549.19
2023-01-22T05:07:55.959Z,101551.88
2023-01-22T05:10:23.546Z,101554.03
2023-01-22T05:12:50.941Z,101547.75
2023-01-22T05:15:24.348Z,101558.38
2023-01-22T05:17:54.216Z,101566.16
2023-01-22T05:20:21.675Z,101566.75
2023-01-22T05:22:49.575Z,101569.25
2023-01-22T05:25:20.274Z,101578.50
2023-01-22T05:27:48.108Z,101583.44
2023-01-22T05:30:25.523Z,101585.06
2023-01-22T05:33:00.708Z,101580.34
2023-01-22T05:35:29.716Z,101587.13
2023-01-22T05:37:57.764Z,101594.00
2023-01-22T05:40:25.141Z,101591.06
2023-01-22T05:42:53.646Z,101590.28
2023-01-22T05:45:22.011Z,101601.06
2023-01-22T05:48:18.303Z,101605.53
2023-01-22T05:51:06.906Z,101607.34
2023-01-22T05:53:35.666Z,101613.06
2023-01-22T05:56:03.758Z,101606.75
2023-01-22T05:58:35.818Z,101612.44
2023-01-22T06:01:03.415Z,101607.53
2023-01-22T06:03:36.105Z,101610.28
2023-01-22T06:06:11.194Z,101609.91
2023-01-22T06:08:41.909Z,101621.69
2023-01-22T06:11:13.345Z,101611.38
2023-01-22T06:13:44.892Z,101616.31
2023-01-22T06:16:22.999Z,101620.53
2023-01-22T06:19:05.887Z,101628.63
2023-01-22T06:21:59.284Z,101640.09
2023-01-22T06:24:34.475Z,101641.88
2023-01-22T06:27:02.285Z,101648.19
2023-01-22T06:29:40.232Z,101644.28
2023-01-22T06:32:08.100Z,101647.91
2023-01-22T06:34:38.258Z,101655.03
2023-01-22T06:37:08.075Z,101653.50
2023-01-22T06:39:38.347Z,101661.59
2023-01-22T06:42:12.867Z,101656.38
2023-01-22T06:44:40.939Z,101661.19
2023-01-22T06:47:08.304Z,101665.03
2023-01-22T06:49:35.685Z,101662.28
2023-01-22T06:52:05.913Z,101671.19
2023-01-22T06:54:33.513Z,101676.13
2023-01-22T06:57:01.009Z,101679.31
2023-01-22T06:59:28.326Z,101683.31
2023-01-22T07:01:55.619Z,101684.38
2023-01-22T07:04:25.063Z,101690.84
2023-01-22T07:06:52.267Z,101691.09
2023-01-22T07:09:19.642Z,101694.06
2023-01-22T07:11:46.954Z,101701.72
2023-01-22T07:14:15.178Z,101710.25
2023-01-22T07:16:42.401Z,101705.84
2023-01-22T07:19:09.667Z,101709.53
2023-01-22T07:21:36.903Z,101715.78
2023-01-22T07:24:04.232Z,101718.09
2023-01-22T07:26:31.490Z,101720.94
2023-01-22T07:28:58.699Z,101724.72
2023-01-22T07:31:25.928Z,101721.09
2023-01-22T07:33:53.131Z,101725.34
2023-01-22T07:36:20.371Z,101728.72
2023-01-22T07:38:47.561Z,101735.56
2023-01-22T07:41:25.424Z,101739.44
2023-01-22T07:43:53.717Z,101748.13
2023-01-22T07:46:21.014Z,101749.19
2023-01-22T07:48:49.321Z,101753.59
2023-01-22T07:51:17.683Z,101766.41
2023-01-22T07:53:44.994Z,101766.06
2023-01-22T07:56:12.642Z,101769.66
2023-01-22T07:58:41.272Z,101772.06
2023-01-22T08:01:08.780Z,101777.13
2023-01-22T08:03:37.917Z,101771.00
2023-01-22T08:06:12.932Z,101784.13
2023-01-22T08:08:40.212Z,101781.88
2023-01-22T08:11:07.455Z,101776.66
2023-01-22T08:13:37.439Z,101785.69
2023-01-22T08:16:04.915Z,101786.78
2023-01-22T08:18:32.338Z,101785.63
2023-01-22T08:21:02.510Z,101787.34
2023-01-22T08:23:30.133Z,101780.47
2023-01-22T08:26:01.253Z,101780.81
2023-01-22T08:28:28.625Z,101788.16
2023-01-22T08:31:00.037Z,101787.75
2023-01-22T08:33:28.298Z,101795.81
2023-01-22T08:35:55.811Z,101793.28
2023-01-22T08:38:23.246Z,101792.97
2023-01-22T08:40:53.728Z,101789.88
2023-01-22T08:43:21.192Z,101793.28
2023-01-22T08:45:49.553Z,101798.13
2023-01-22T08:48:17.872Z,101788.66
2023-01-22T08:50:45.382Z,101795.13
2023-01-22T08:53:12.696Z,101795.81
2023-01-22T08:55:40.169Z,101802.72
2023-01-22T08:58:08.053Z,101804.34
2023-01-22T09:00:35.271Z,101812.63
2023-01-22T09:03:02.481Z,101817.69
2023-01-22T09:05:29.776Z,101813.28
2023-01-22T09:07:58.063Z,101803.97
2023-01-22T09:10:25.623Z,101813.81
2023-01-22T09:12:54.185Z,101823.03
2023-01-22T09:15:21.394Z,101819.41
2023-01-22T09:17:48.623Z,101815.09
2023-01-22T09:20:16.368Z,101826.84
2023-01-22T09:22:47.486Z,101821.25
2023-01-22T09:25:15.104Z,101823.03
2023-01-22T09:27:42.451Z,101825.22
2023-01-22T09:30:10.109Z,101824.81
2023-01-22T09:32:37.486Z,101831.59
2023-01-22T09:35:08.358Z,101829.88
2023-01-22T09:37:35.561Z,101839.41
2023-01-22T09:40:02.813Z,101839.56
2023-01-22T09:42:35.237Z,101839.25
2023-01-22T09:45:06.695Z,101845.47
2023-01-22T09:47:36.881Z,101852.75
2023-01-22T09:50:12.526Z,101843.19
2023-01-22T09:52:40.241Z,101846.34
2023-01-22T09:55:14.616Z,101842.31
2023-01-22T09:57:50.437Z,101842.38
2023-01-22T10:00:38.022Z,101845.66
2023-01-22T10:03:07.691Z,101847.44
2023-01-22T10:05:56.211Z,101839.84
2023-01-22T10:08:26.320Z,101841.13
2023-01-22T10:10:53.688Z,101844.56
2023-01-22T10:13:22.409Z,101838.88
2023-01-22T10:15:51.113Z,101836.66
2023-01-22T10:18:26.991Z,101842.38
2023-01-22T10:20:55.278Z,101846.78
2023-01-22T10:23:24.241Z,101839.19
2023-01-22T10:26:04.802Z,101844.00
2023-01-22T10:28:32.030Z,101837.75
2023-01-22T10:30:59.575Z,101842.66
2023-01-22T10:33:27.759Z,101841.47
2023-01-22T10:35:56.938Z,101840.72
2023-01-22T10:38:30.111Z,101840.97
2023-01-22T10:41:01.810Z,101844.81
2023-01-22T10:43:36.529Z,101850.63
2023-01-22T10:46:17.932Z,101836.81
2023-01-22T10:48:45.154Z,101844.91
2023-01-22T10:51:17.093Z,101844.84
2023-01-22T10:53:54.993Z,101839.78
2023-01-22T10:56:27.733Z,101845.53
2023-01-22T10:58:55.494Z,101848.50
2023-01-22T11:01:34.702Z,101844.50
2023-01-22T11:04:15.155Z,101851.34
2023-01-22T11:06:45.578Z,101856.34
2023-01-22T11:09:25.191Z,101845.22
2023-01-22T11:11:57.799Z,101850.44
2023-01-22T11:14:31.394Z,101853.34
2023-01-22T11:17:01.480Z,101853.81
2023-01-22T11:19:37.452Z,101854.47
2023-01-22T11:22:11.818Z,101848.66
2023-01-22T11:24:42.891Z,101852.25
2023-01-22T11:27:28.958Z,101851.84
2023-01-22T11:29:59.162Z,101846.56
2023-01-22T11:32:45.276Z,101855.94
2023-01-22T11:35:18.209Z,101852.50
2023-01-22T11:37:46.373Z,101855.03
2023-01-22T11:40:19.710Z,101853.72
2023-01-22T11:42:50.161Z,101853.34
2023-01-22T11:45:20.381Z,101859.19
2023-01-22T11:48:06.443Z,101858.69
2023-01-22T11:50:40.089Z,101853.03
2023-01-22T11:53:25.645Z,101853.25
2023-01-22T11:55:54.696Z,101850.41
2023-01-22T11:58:37.059Z,101851.72
2023-01-22T12:01:10.352Z,101853.19
2023-01-22T12:03:38.505Z,101857.19
2023-01-22T12:06:13.039Z,101860.53
2023-01-22T12:08:43.228Z,101859.53
2023-01-22T12:11:10.440Z,101855.97
2023-01-22T12:13:40.629Z,101857.97
2023-01-22T12:16:07.901Z,101865.78
2023-01-22T12:18:41.172Z,101863.50
2023-01-22T12:21:12.605Z,101860.97
2023-01-22T12:23:59.034Z,101860.19
2023-01-22T12:26:33.371Z,101857.25
2023-01-22T12:29:29.039Z,101869.81
2023-01-22T12:32:05.063Z,101869.03
2023-01-22T12:34:40.184Z,101867.25
2023-01-22T12:37:08.045Z,101869.88
2023-01-22T12:39:58.509Z,101862.06
2023-01-22T12:42:40.201Z,101868.09
2023-01-22T12:45:10.487Z,101871.34
2023-01-22T12:47:52.243Z,101865.88
2023-01-22T12:50:23.013Z,101870.63
2023-01-22T12:52:59.502Z,101873.66
2023-01-22T12:55:30.489Z,101877.03
2023-01-22T12:57:58.289Z,101870.50
2023-01-22T13:00:30.668Z,101862.97
2023-01-22T13:02:58.073Z,101878.16
2023-01-22T13:05:31.363Z,101880.16
2023-01-22T13:08:21.969Z,101875.50
2023-01-22T13:10:58.379Z,101875.06
2023-01-22T13:13:33.963Z,101878.16
2023-01-22T13:16:05.963Z,101877.03
2023-01-22T13:18:35.173Z,101883.31
2023-01-22T13:21:07.075Z,101885.47
2023-01-22T13:23:35.528Z,101879.75
2023-01-22T13:26:03.268Z,101884.75
2023-01-22T13:28:30.987Z,101888.38
2023-01-22T13:31:02.874Z,101889.28
2023-01-22T13:33:30.926Z,101890.59
2023-01-22T13:35:58.633Z,101895.44
2023-01-22T13:38:30.978Z,101894.81
2023-01-22T13:41:13.137Z,101900.19
2023-01-22T13:43:41.806Z,101890.63
2023-01-22T13:46:13.124Z,101897.09
2023-01-22T13:48:40.559Z,101902.03
2023-01-22T13:51:14.451Z,101901.59
2023-01-22T13:53:46.011Z,101912.06
2023-01-22T13:56:17.288Z,101908.59
2023-01-22T13:58:49.017Z,101910.03
2023-01-22T14:01:29.943Z,101907.09
2023-01-22T14:04:01.880Z,101906.13
2023-01-22T14:06:29.631Z,101907.03
2023-01-22T14:08:57.946Z,101912.78
2023-01-22T14:11:25.247Z,101911.56
2023-01-22T14:13:53.289Z,101910.13
2023-01-22T14:16:21.447Z,101920.41
2023-01-22T14:18:48.706Z,101918.72
2023-01-22T14:21:16.665Z,101923.47
2023-01-22T14:23:44.075Z,101913.41
2023-01-22T14:26:11.749Z,101923.25
2023-01-22T14:28:39.158Z,101926.88
2023-01-22T14:31:06.533Z,101921.47
2023-01-22T14:33:37.330Z,101928.53
2023-01-22T14:36:04.907Z,101926.16
2023-01-22T14:38:32.247Z,101931.53
2023-01-22T14:41:03.004Z,101935.47
2023-01-22T14:43:30.370Z,101932.91
2023-01-22T14:45:57.653Z,101933.56
2023-01-22T14:48:25.077Z,101940.97
2023-01-22T14:50:52.994Z,101932.47
2023-01-22T14:53:20.200Z,101933.56
2023-01-22T14:55:47.435Z,101931.78
2023-01-22T14:58:16.891Z,101938.00
2023-01-22T15:01:13.933Z,101938.78
2023-01-22T15:03:41.182Z,101941.09
2023-01-22T15:06:08.394Z,101948.69
2023-01-22T15:08:35.702Z,101936.88
2023-01-22T15:11:03.305Z,101941.31
2023-01-22T15:13:30.601Z,101940.44
2023-01-22T15:16:01.888Z,101939.84
2023-01-22T15:18:29.132Z,101937.84
2023-01-22T15:20:56.540Z,101934.69
2023-01-22T15:23:23.724Z,101933.38
2023-01-22T15:26:20.099Z,101937.78
2023-01-22T15:28:47.335Z,101933.47
2023-01-22T15:31:14.654Z,101934.69
2023-01-22T15:33:42.062Z,101938.13
2023-01-22T15:36:09.503Z,101936.09
2023-01-22T15:38:36.945Z,101941.34
2023-01-22T15:41:05.652Z,101945.50
2023-01-22T15:43:33.092Z,101947.13
2023-01-22T15:46:00.503Z,101947.34
2023-01-22T15:48:27.755Z,101947.19
2023-01-22T15:50:55.022Z,101948.06
2023-01-22T15:53:22.283Z,101946.28
2023-01-22T15:55:50.127Z,101941.06
2023-01-22T15:58:17.399Z,101959.50
2023-01-22T16:00:44.655Z,101953.06
2023-01-22T16:03:12.160Z,101952.22
2023-01-22T16:05:39.381Z,101958.75
2023-01-22T16:08:06.926Z,101960.19
2023-01-22T16:10:34.190Z,101955.53
2023-01-22T16:13:01.415Z,101955.78
2023-01-22T16:15:28.629Z,101957.25
2023-01-22T16:17:55.850Z,101955.78
2023-01-22T16:20:23.299Z,101958.13
2023-01-22T16:22:50.690Z,101961.75
2023-01-22T16:25:17.974Z,101960.00
2023-01-22T16:27:45.185Z,101960.91
2023-01-22T16:30:13.061Z,101962.19
2023-01-22T16:32:42.717Z,101969.41
2023-01-22T16:35:10.732Z,101970.69
2023-01-22T16:37:39.212Z,101971.19
2023-01-22T16:40:07.450Z,101978.00
2023-01-22T16:42:36.514Z,101976.41
2023-01-22T16:45:03.837Z,101973.31
2023-01-22T16:47:31.040Z,101978.00
2023-01-22T16:49:58.261Z,101979.28
2023-01-22T16:52:25.451Z,101987.78
2023-01-22T16:54:52.654Z,101983.81
2023-01-22T16:57:21.194Z,101985.66
2023-01-22T16:59:48.560Z,101992.88
2023-01-22T17:02:16.177Z,101996.16
2023-01-22T17:04:43.478Z,101991.81
2023-01-22T17:07:20.481Z,101999.25
2023-01-22T17:09:54.975Z,101995.44
2023-01-22T17:12:22.187Z,101995.41
2023-01-22T17:14:52.748Z,101999.53
2023-01-22T17:17:19.944Z,102000.09
2023-01-22T17:19:47.149Z,102005.69
2023-01-22T17:22:14.383Z,102017.66
2023-01-22T17:24:41.864Z,102012.25
2023-01-22T17:27:09.419Z,102006.47
2023-01-22T17:29:36.735Z,102003.06
2023-01-22T17:32:04.327Z,102003.59
2023-01-22T17:34:31.661Z,102003.59
2023-01-22T17:36:59.115Z,102006.25
2023-01-22T17:39:27.182Z,102012.00
2023-01-22T17:41:54.483Z,102010.38
2023-01-22T17:44:25.471Z,102012.19
2023-01-22T17:46:55.565Z,102020.84
2023-01-22T17:49:25.117Z,102013.47
2023-01-22T17:51:52.360Z,102010.03
2023-01-22T17:54:20.065Z,102007.34
2023-01-22T17:56:49.188Z,102009.69
2023-01-22T17:59:16.680Z,102009.50
2023-01-22T18:01:45.209Z,102014.13
2023-01-22T18:04:13.479Z,102000.22
2023-01-22T18:06:41.676Z,102005.56
2023-01-22T18:09:09.428Z,102007.91
2023-01-22T18:11:37.550Z,102011.72
2023-01-22T18:14:06.853Z,102013.94
2023-01-22T18:16:36.116Z,102016.00
2023-01-22T18:19:07.350Z,102012.41
2023-01-22T18:21:35.468Z,102007.91
2023-01-22T18:24:03.483Z,102013.81
2023-01-22T18:26:30.913Z,102013.50
2023-01-22T18:28:59.309Z,102014.03
2023-01-22T18:31:27.603Z,102020.38
2023-01-22T18:34:02.386Z,102014.41
2023-01-22T18:36:30.736Z,102020.03
2023-01-22T18:39:02.362Z,102021.09
2023-01-22T18:41:29.821Z,102013.66
2023-01-22T18:43:58.196Z,102019.59
2023-01-22T18:46:28.102Z,102020.63
2023-01-22T18:48:56.867Z,102024.25
2023-01-22T18:51:24.418Z,102022.09
2023-01-22T18:53:52.006Z,102018.44
2023-01-22T18:56:19.233Z,102021.66
2023-01-22T18:58:48.273Z,102027.09
2023-01-22T19:01:17.428Z,102030.50
2023-01-22T19:03:46.418Z,102030.84
2023-01-22T19:06:19.713Z,102035.91
2023-01-22T19:08:48.816Z,102038.81
2023-01-22T19:11:18.392Z,102041.34
2023-01-22T19:13:46.113Z,102037.53
2023-01-22T19:16:15.016Z,102033.53
2023-01-22T19:18:44.012Z,102045.88
2023-01-22T19:21:13.974Z,102043.91
2023-01-22T19:23:44.064Z,102050.59
2023-01-22T19:26:13.488Z,102051.13
2023-01-22T19:28:40.732Z,102054.94
2023-01-22T19:31:15.429Z,102051.50
2023-01-22T19:33:42.688Z,102062.69
2023-01-22T19:36:11.365Z,102062.13
2023-01-22T19:38:39.175Z,102062.72
2023-01-22T19:41:06.972Z,102061.66
2023-01-22T19:43:34.335Z,102068.13
2023-01-22T19:46:02.710Z,102068.81
2023-01-22T19:48:30.228Z,102068.44
2023-01-22T19:50:58.593Z,102070.59
2023-01-22T19:53:26.391Z,102066.97
2023-01-22T19:55:53.944Z,102072.00
2023-01-22T19:58:21.612Z,102067.47
2023-01-22T20:00:49.009Z,102064.38
2023-01-22T20:03:16.474Z,102075.38
2023-01-22T20:05:44.688Z,102071.78
2023-01-22T20:08:13.632Z,102067.97
2023-01-22T20:10:41.614Z,102065.97
2023-01-22T20:13:10.612Z,102057.09
2023-01-22T20:15:38.876Z,102057.66
2023-01-22T20:18:06.743Z,102065.06
2023-01-22T20:20:34.505Z,102071.38
2023-01-22T20:23:01.948Z,102078.06
2023-01-22T20:25:31.095Z,102071.75
2023-01-22T20:27:59.226Z,102074.63
2023-01-22T20:30:27.186Z,102065.03
2023-01-22T20:32:56.549Z,102074.94
2023-01-22T20:35:24.042Z,102073.00
2023-01-22T20:37:51.344Z,102074.47
2023-01-22T20:40:18.706Z,102070.47
2023-01-22T20:42:46.047Z,102065.56
2023-01-22T20:45:13.455Z,102066.66
2023-01-22T20:47:40.922Z,102072.22
2023-01-22T20:50:09.043Z,102069.31
2023-01-22T20:52:36.290Z,102065.34
2023-01-22T20:55:04.034Z,102073.97
2023-01-22T20:57:31.887Z,102072.25
2023-01-22T20:59:59.243Z,102081.34
2023-01-22T21:02:26.884Z,102085.00
2023-01-22T21:04:54.207Z,102082.31
2023-01-22T21:07:21.471Z,102090.47
2023-01-22T21:09:49.542Z,102089.03
2023-01-22T21:12:17.168Z,102093.03
2023-01-22T21:14:44.454Z,102095.56
2023-01-22T21:17:12.512Z,102099.56
2023-01-22T21:19:44.305Z,102104.06
2023-01-22T21:22:11.639Z,102099.38
2023-01-22T21:24:38.874Z,102094.13
2023-01-22T21:27:06.125Z,102098.81
2023-01-22T21:29:33.400Z,102101.69
2023-01-22T21:32:00.619Z,102097.75
2023-01-22T21:34:28.443Z,102102.78
2023-01-22T21:36:58.741Z,102098.63
2023-01-22T21:39:28.473Z,102101.66
2023-01-22T21:42:14.630Z,102106.00
2023-01-22T21:45:00.583Z,102104.94
2023-01-22T21:47:28.441Z,102112.16
2023-01-22T21:49:56.008Z,102106.38
2023-01-22T21:52:23.237Z,102102.41
2023-01-22T21:54:50.438Z,102107.81
2023-01-22T21:57:17.649Z,102105.97
2023-01-22T21:59:46.634Z,102107.59
2023-01-22T22:02:16.351Z,102103.06
2023-01-22T22:04:43.654Z,102106.09
2023-01-22T22:07:11.204Z,102104.84
2023-01-22T22:09:38.728Z,102106.97
2023-01-22T22:12:06.278Z,102097.22
2023-01-22T22:14:33.523Z,102106.19
2023-01-22T22:17:00.767Z,102114.91
2023-01-22T22:19:29.060Z,102116.38
2023-01-22T22:21:56.485Z,102121.81
2023-01-22T22:24:24.219Z,102118.38
2023-01-22T22:27:11.336Z,102113.31
2023-01-22T22:29:38.510Z,102125.94
2023-01-22T22:32:05.806Z,102124.63
2023-01-22T22:34:33.142Z,102130.06
2023-01-22T22:37:00.322Z,102128.06
2023-01-22T22:39:27.535Z,102130.06
2023-01-22T22:41:54.757Z,102124.28
2023-01-22T22:44:22.046Z,102120.13
2023-01-22T22:46:49.523Z,102129.13
2023-01-22T22:49:16.764Z,102124.25
2023-01-22T22:51:44.510Z,102121.88
2023-01-22T22:54:16.360Z,102122.03
2023-01-22T22:56:47.553Z,102110.47
2023-01-22T22:59:16.026Z,102117.16
2023-01-22T23:01:43.325Z,102113.41
2023-01-22T23:04:11.530Z,102120.28
2023-01-22T23:06:39.180Z,102112.69
2023-01-22T23:09:13.637Z,102117.41
2023-01-22T23:11:41.275Z,102113.13
2023-01-22T23:14:08.604Z,102115.28
2023-01-22T23:16:39.665Z,102108.09
2023-01-22T23:19:09.060Z,102119.28
2023-01-22T23:21:38.549Z,102105.16
2023-01-22T23:24:09.305Z,102123.03
2023-01-22T23:26:39.086Z,102120.50
2023-01-22T23:29:08.397Z,102121.78
2023-01-22T23:31:39.315Z,102120.31
2023-01-22T23:34:10.914Z,102128.78
2023-01-22T23:36:39.487Z,102128.63
2023-01-22T23:39:06.721Z,102132.59
2023-01-22T23:41:34.724Z,102127.88
2023-01-22T23:44:02.631Z,102135.47
2023-01-22T23:46:35.248Z,102139.63
2023-01-22T23:49:04.605Z,102137.50
2023-01-22T23:51:32.089Z,102134.41
2023-01-22T23:53:59.342Z,102137.09
2023-01-22T23:56:30.221Z,102138.19
2023-01-22T23:58:57.708Z,102140.56
